createdAt,value
2018-01-27T00:00:17.588Z,18.00
2018-01-27T00:02:44.511Z,19.00
2018-01-27T00:05:10.765Z,19.27
2018-01-27T00:07:37.690Z,17.50
2018-01-27T00:10:03.967Z,18.37
2018-01-27T00:12:30.143Z,16.50
2018-01-27T00:14:56.402Z,16.73
2018-01-27T00:17:23.360Z,18.03
2018-01-27T00:19:50.333Z,16.37
2018-01-27T00:22:16.518Z,17.63
2018-01-27T00:24:43.447Z,18.07
2018-01-27T00:27:09.656Z,18.03
2018-01-27T00:29:35.835Z,18.37
2018-01-27T00:32:03.119Z,17.03
2018-01-27T00:34:29.311Z,16.67
2018-01-27T00:36:56.271Z,17.87
2018-01-27T00:39:22.450Z,17.10
2018-01-27T00:41:48.663Z,17.30
2018-01-27T00:44:14.840Z,18.00
2018-01-27T00:46:41.823Z,16.20
2018-01-27T00:49:08.003Z,15.83
2018-01-27T00:51:34.483Z,17.60
2018-01-27T00:54:00.667Z,15.30
2018-01-27T00:56:26.875Z,16.23
2018-01-27T00:58:53.055Z,16.90
2018-01-27T01:01:19.526Z,14.30
2018-01-27T01:03:45.703Z,16.50
2018-01-27T01:06:12.626Z,14.60
2018-01-27T01:08:39.111Z,15.17
2018-01-27T01:11:05.291Z,15.70
2018-01-27T01:13:31.504Z,16.50
2018-01-27T01:15:57.690Z,14.37
2018-01-27T01:18:23.904Z,15.00
2018-01-27T01:20:50.095Z,14.30
2018-01-27T01:23:16.311Z,16.90
2018-01-27T01:25:42.820Z,17.17
2018-01-27T01:28:09.031Z,16.20
2018-01-27T01:30:35.210Z,17.80
2018-01-27T01:33:01.465Z,17.63
2018-01-27T01:35:28.382Z,16.50
2018-01-27T01:37:54.596Z,16.77
2018-01-27T01:40:20.775Z,15.90
2018-01-27T01:45:46.415Z,15.10
2018-01-27T01:48:13.362Z,14.50
2018-01-27T01:50:39.551Z,14.50
2018-01-27T01:53:05.762Z,17.03
2018-01-27T01:55:31.944Z,16.30
2018-01-27T01:57:58.891Z,15.37
2018-01-27T02:00:32.876Z,14.90
2018-01-27T02:02:59.079Z,16.40
2018-01-27T02:05:25.258Z,16.77
2018-01-27T02:07:52.179Z,18.00
2018-01-27T02:10:18.900Z,14.80
2018-01-27T02:12:45.537Z,14.90
2018-01-27T02:15:12.176Z,15.60
2018-01-27T02:17:38.407Z,15.03
2018-01-27T02:20:04.915Z,16.03
2018-01-27T02:22:31.096Z,14.67
2018-01-27T02:24:57.300Z,15.83
2018-01-27T02:27:23.479Z,15.33
2018-01-27T02:29:49.691Z,16.00
2018-01-27T02:32:16.879Z,15.23
2018-01-27T02:34:43.091Z,15.47
2018-01-27T02:37:09.812Z,15.77
2018-01-27T02:39:36.059Z,15.17
2018-01-27T02:42:02.255Z,16.20
2018-01-27T02:44:28.520Z,16.97
2018-01-27T02:46:54.707Z,16.43
2018-01-27T02:49:20.916Z,18.77
2018-01-27T02:51:47.099Z,16.40
2018-01-27T02:54:14.055Z,16.57
2018-01-27T02:56:40.255Z,17.60
2018-01-27T02:59:07.227Z,16.80
2018-01-27T03:01:33.423Z,17.83
2018-01-27T03:03:59.639Z,17.33
2018-01-27T03:06:25.827Z,19.93
2018-01-27T03:08:52.047Z,21.53
2018-01-27T03:11:18.222Z,21.13
2018-01-27T03:13:44.399Z,19.30
2018-01-27T03:16:10.670Z,19.50
2018-01-27T03:18:36.863Z,21.90
2018-01-27T03:21:03.071Z,19.47
2018-01-27T03:23:29.999Z,17.57
2018-01-27T03:25:56.955Z,19.13
2018-01-27T03:28:23.870Z,16.77
2018-01-27T03:30:50.088Z,17.80
2018-01-27T03:33:16.318Z,16.50
2018-01-27T03:35:42.552Z,15.10
2018-01-27T03:38:08.743Z,14.33
2018-01-27T03:40:34.945Z,16.17
2018-01-27T03:43:01.895Z,18.07
2018-01-27T03:45:28.851Z,17.10
2018-01-27T03:47:55.803Z,16.80
2018-01-27T03:50:21.979Z,16.90
2018-01-27T03:52:48.650Z,16.80
2018-01-27T03:55:15.581Z,17.40
2018-01-27T03:57:43.271Z,17.27
2018-01-27T04:00:10.187Z,15.50
2018-01-27T04:02:36.571Z,14.90
2018-01-27T04:05:02.759Z,16.40
2018-01-27T04:07:28.934Z,17.70
2018-01-27T04:09:55.139Z,14.60
2018-01-27T04:12:21.315Z,17.87
2018-01-27T04:14:47.566Z,15.27
2018-01-27T04:17:13.746Z,16.47
2018-01-27T04:19:39.955Z,17.90
2018-01-27T04:22:06.131Z,15.90
2018-01-27T04:24:32.339Z,13.23
2018-01-27T04:26:58.519Z,15.40
2018-01-27T04:29:25.493Z,14.17
2018-01-27T04:31:51.674Z,14.90
2018-01-27T04:34:17.886Z,14.87
2018-01-27T04:36:44.063Z,15.30
2018-01-27T04:39:11.050Z,13.23
2018-01-27T04:41:37.236Z,15.40
2018-01-27T04:44:04.211Z,15.47
2018-01-27T04:46:30.423Z,15.07
2018-01-27T04:48:56.631Z,16.53
2018-01-27T04:51:22.856Z,15.40
2018-01-27T04:53:49.810Z,14.30
2018-01-27T04:56:16.735Z,14.30
2018-01-27T04:58:42.943Z,17.50
2018-01-27T05:01:09.126Z,17.83
2018-01-27T05:03:35.340Z,16.80
2018-01-27T05:06:02.278Z,14.17
2018-01-27T05:08:29.234Z,16.63
2018-01-27T05:10:56.183Z,14.97
2018-01-27T05:13:23.103Z,15.33
2018-01-27T05:15:49.315Z,15.77
2018-01-27T05:18:15.504Z,16.70
2018-01-27T05:20:41.711Z,18.00
2018-01-27T05:23:08.639Z,15.47
2018-01-27T05:25:34.847Z,15.83
2018-01-27T05:28:01.032Z,18.23
2018-01-27T05:30:27.243Z,17.07
2018-01-27T05:32:54.167Z,16.93
2018-01-27T05:35:20.381Z,15.63
2018-01-27T05:37:46.559Z,15.63
2018-01-27T05:40:12.771Z,15.90
2018-01-27T05:42:39.690Z,17.83
2018-01-27T05:45:05.944Z,17.73
2018-01-27T05:47:32.862Z,18.60
2018-01-27T05:49:59.075Z,15.53
2018-01-27T05:52:25.251Z,17.40
2018-01-27T05:54:52.555Z,16.47
2018-01-27T05:57:18.740Z,16.67
2018-01-27T05:59:44.923Z,16.83
2018-01-27T06:02:11.132Z,16.07
2018-01-27T06:04:37.308Z,17.07
2018-01-27T06:07:04.262Z,16.97
2018-01-27T06:09:31.187Z,17.40
2018-01-27T06:11:57.419Z,15.37
2018-01-27T06:14:23.603Z,14.73
2018-01-27T06:16:49.812Z,16.53
2018-01-27T06:19:16.015Z,15.90
2018-01-27T06:21:43.100Z,17.27
2018-01-27T06:24:09.295Z,17.10
2018-01-27T06:26:36.219Z,15.83
2018-01-27T06:29:02.433Z,16.53
2018-01-27T06:31:28.630Z,17.00
2018-01-27T06:33:54.832Z,15.07
2018-01-27T06:36:21.760Z,15.57
2018-01-27T06:38:48.199Z,16.23
2018-01-27T06:41:14.375Z,16.00
2018-01-27T06:43:40.575Z,14.73
2018-01-27T06:46:06.815Z,14.20
2018-01-27T06:48:33.084Z,16.20
2018-01-27T06:50:59.295Z,13.83
2018-01-27T06:53:25.702Z,14.17
2018-01-27T06:55:51.892Z,14.07
2018-01-27T06:58:18.068Z,16.00
2018-01-27T07:00:44.276Z,15.37
2018-01-27T07:03:11.391Z,14.20
2018-01-27T07:05:37.599Z,14.67
2018-01-27T07:08:03.844Z,14.00
2018-01-27T07:10:30.351Z,14.33
2018-01-27T07:12:56.526Z,15.63
2018-01-27T07:15:22.739Z,16.27
2018-01-27T07:17:48.928Z,16.40
2018-01-27T07:20:15.134Z,15.50
2018-01-27T07:22:42.051Z,14.23
2018-01-27T07:25:08.259Z,17.00
2018-01-27T07:27:34.436Z,16.53
2018-01-27T07:30:01.408Z,16.00
2018-01-27T07:32:27.594Z,16.43
2018-01-27T07:34:54.004Z,14.80
2018-01-27T07:37:20.183Z,14.10
2018-01-27T07:39:46.364Z,14.60
2018-01-27T07:42:12.575Z,13.97
2018-01-27T07:44:38.756Z,13.70
2018-01-27T07:47:05.746Z,12.87
2018-01-27T07:49:31.987Z,12.87
2018-01-27T07:51:58.195Z,12.37
2018-01-27T07:54:24.375Z,14.43
2018-01-27T07:56:50.583Z,13.00
2018-01-27T07:59:16.786Z,17.73
2018-01-27T08:01:42.975Z,18.33
2018-01-27T08:04:09.922Z,17.47
2018-01-27T08:06:36.847Z,15.27
2018-01-27T08:09:03.818Z,15.87
2018-01-27T08:11:30.739Z,15.57
2018-01-27T08:13:57.224Z,15.50
2018-01-27T08:16:23.409Z,15.77
2018-01-27T08:18:49.619Z,17.43
2018-01-27T08:21:15.795Z,22.70
2018-01-27T08:23:42.395Z,21.87
2018-01-27T08:26:08.608Z,23.03
2018-01-27T08:28:34.786Z,24.30
2018-01-27T08:31:01.339Z,18.90
2018-01-27T08:33:27.574Z,19.23
2018-01-27T08:35:53.791Z,18.17
2018-01-27T08:38:19.966Z,15.40
2018-01-27T08:40:47.662Z,14.40
2018-01-27T08:43:14.587Z,12.77
2018-01-27T08:45:41.639Z,11.53
2018-01-27T08:48:07.824Z,9.83
2018-01-27T08:50:34.051Z,10.33
2018-01-27T08:53:00.233Z,10.53
2018-01-27T08:55:27.164Z,10.33
2018-01-27T08:57:53.366Z,11.27
2018-01-27T09:00:19.545Z,11.47
2018-01-27T09:02:46.494Z,12.37
2018-01-27T09:05:13.415Z,10.40
2018-01-27T09:07:39.627Z,11.33
2018-01-27T09:10:05.807Z,9.87
2018-01-27T09:12:31.979Z,9.20
2018-01-27T09:14:58.187Z,9.27
2018-01-27T09:17:24.363Z,9.73
2018-01-27T09:19:51.316Z,9.87
2018-01-27T09:22:18.256Z,10.53
2018-01-27T09:24:45.206Z,9.87
2018-01-27T09:27:12.126Z,11.33
2018-01-27T09:29:38.331Z,9.90
2018-01-27T09:32:04.524Z,10.07
2018-01-27T09:34:30.735Z,10.80
2018-01-27T09:36:57.663Z,8.63
2018-01-27T09:39:24.631Z,8.10
2018-01-27T09:41:51.556Z,9.17
2018-01-27T09:44:18.199Z,8.87
2018-01-27T09:46:44.407Z,8.60
2018-01-27T09:49:10.614Z,8.60
2018-01-27T09:51:37.041Z,9.50
2018-01-27T09:54:03.256Z,8.93
2018-01-27T09:56:29.707Z,8.83
2018-01-27T09:58:55.886Z,9.47
2018-01-27T10:01:22.099Z,10.57
2018-01-27T10:03:48.283Z,10.33
2018-01-27T10:06:14.551Z,10.57
2018-01-27T10:08:40.730Z,8.77
2018-01-27T10:11:06.950Z,9.93
2018-01-27T10:13:33.131Z,9.70
2018-01-27T10:15:59.312Z,10.40
2018-01-27T10:18:25.521Z,10.60
2018-01-27T10:20:52.440Z,10.93
2018-01-27T10:23:18.648Z,10.43
2018-01-27T10:25:44.823Z,12.77
2018-01-27T10:28:11.780Z,13.10
2018-01-27T10:30:38.727Z,12.63
2018-01-27T10:33:05.687Z,12.60
2018-01-27T10:35:31.871Z,11.40
2018-01-27T10:37:58.083Z,12.27
2018-01-27T10:40:24.283Z,11.87
2018-01-27T10:42:50.819Z,12.20
2018-01-27T10:45:17.016Z,11.20
2018-01-27T10:47:43.967Z,13.27
2018-01-27T10:50:10.943Z,13.37
2018-01-27T10:52:37.427Z,11.40
2018-01-27T10:55:03.663Z,11.70
2018-01-27T10:57:30.607Z,12.83
2018-01-27T10:59:58.303Z,12.13
2018-01-27T11:02:24.496Z,11.20
2018-01-27T11:04:51.451Z,13.37
2018-01-27T11:07:18.375Z,12.10
2018-01-27T11:09:44.592Z,11.33
2018-01-27T11:12:10.770Z,12.67
2018-01-27T11:14:37.687Z,12.40
2018-01-27T11:17:03.919Z,12.47
2018-01-27T11:19:30.095Z,11.70
2018-01-27T11:21:56.306Z,11.63
2018-01-27T11:24:22.486Z,10.37
2018-01-27T11:26:48.707Z,11.40
2018-01-27T11:29:14.887Z,10.00
2018-01-27T11:31:41.839Z,10.83
2018-01-27T11:34:08.015Z,9.57
2018-01-27T11:36:34.231Z,9.47
2018-01-27T11:39:00.415Z,8.87
2018-01-27T11:41:27.363Z,8.60
2018-01-27T11:43:53.548Z,9.30
2018-01-27T11:46:19.768Z,9.67
2018-01-27T11:48:45.983Z,9.10
2018-01-27T11:51:12.196Z,10.60
2018-01-27T11:53:38.391Z,9.40
2018-01-27T11:56:05.371Z,8.70
2018-01-27T11:58:31.555Z,8.77
2018-01-27T12:00:57.771Z,9.30
2018-01-27T12:03:23.967Z,10.23
2018-01-27T12:05:50.415Z,8.53
2018-01-27T12:08:16.599Z,9.10
2018-01-27T12:10:43.520Z,9.60
2018-01-27T12:13:09.727Z,10.10
2018-01-27T12:15:35.912Z,9.50
2018-01-27T12:18:02.127Z,9.27
2018-01-27T12:20:29.071Z,9.00
2018-01-27T12:22:56.030Z,8.47
2018-01-27T12:25:22.210Z,9.60
2018-01-27T12:27:48.428Z,9.10
2018-01-27T12:30:14.644Z,9.83
2018-01-27T12:32:40.893Z,8.37
2018-01-27T12:35:07.075Z,8.60
2018-01-27T12:37:33.283Z,8.30
2018-01-27T12:40:00.207Z,9.13
2018-01-27T12:42:26.415Z,9.70
2018-01-27T12:44:52.591Z,9.97
2018-01-27T12:47:19.583Z,10.13
2018-01-27T12:49:45.826Z,10.03
2018-01-27T12:52:12.044Z,10.27
2018-01-27T12:54:38.223Z,11.90
2018-01-27T12:57:05.174Z,11.03
2018-01-27T12:59:32.128Z,12.20
2018-01-27T13:01:58.684Z,11.17
2018-01-27T13:04:24.895Z,11.80
2018-01-27T13:06:51.117Z,10.03
2018-01-27T13:09:18.389Z,11.73
2018-01-27T13:11:44.878Z,10.33
2018-01-27T13:14:11.836Z,10.43
2018-01-27T13:16:39.171Z,10.53
2018-01-27T13:19:05.716Z,11.97
2018-01-27T13:21:32.241Z,11.00
2018-01-27T13:23:58.892Z,12.67
2018-01-27T13:26:25.832Z,13.33
2018-01-27T13:28:52.473Z,12.47
2018-01-27T13:31:19.212Z,11.53
2018-01-27T13:33:45.503Z,10.90
2018-01-27T13:36:12.076Z,11.20
2018-01-27T13:38:38.310Z,10.60
2018-01-27T13:41:04.518Z,10.20
2018-01-27T13:43:30.700Z,12.23
2018-01-27T13:45:56.911Z,11.77
2018-01-27T13:48:23.864Z,12.17
2018-01-27T13:50:50.831Z,12.13
2018-01-27T13:53:17.011Z,11.67
2018-01-27T13:55:43.219Z,11.97
2018-01-27T13:58:09.394Z,11.40
2018-01-27T14:00:36.348Z,11.77
2018-01-27T14:03:03.323Z,12.27
2018-01-27T14:05:29.526Z,12.60
2018-01-27T14:07:55.707Z,13.30
2018-01-27T14:10:21.910Z,13.67
2018-01-27T14:12:48.091Z,12.67
2018-01-27T14:15:15.043Z,12.40
2018-01-27T14:17:42.204Z,12.73
2018-01-27T14:20:09.151Z,12.20
2018-01-27T14:22:36.076Z,12.87
2018-01-27T14:25:02.286Z,13.37
2018-01-27T14:27:28.505Z,12.90
2018-01-27T14:29:54.723Z,13.03
2018-01-27T14:32:20.949Z,12.80
2018-01-27T14:34:47.162Z,13.90
2018-01-27T14:37:13.381Z,13.80
2018-01-27T14:39:39.587Z,12.40
2018-01-27T14:42:06.499Z,13.77
2018-01-27T14:44:32.703Z,14.27
2018-01-27T14:46:58.875Z,13.57
2018-01-27T14:49:25.115Z,14.27
2018-01-27T14:51:52.032Z,12.13
2018-01-27T14:54:18.254Z,14.67
2018-01-27T14:56:44.479Z,16.07
2018-01-27T14:59:10.691Z,16.23
2018-01-27T15:01:36.867Z,15.17
2018-01-27T15:04:03.075Z,15.00
2018-01-27T15:06:29.256Z,15.23
2018-01-27T15:08:55.624Z,14.77
2018-01-27T15:11:21.799Z,17.63
2018-01-27T15:13:48.719Z,14.80
2018-01-27T15:16:14.931Z,17.10
2018-01-27T15:18:41.148Z,14.27
2018-01-27T15:21:07.362Z,13.93
2018-01-27T15:23:33.542Z,15.27
2018-01-27T15:25:59.815Z,15.50
2018-01-27T15:28:25.986Z,13.20
2018-01-27T15:30:52.635Z,14.57
2018-01-27T15:33:18.827Z,13.67
2018-01-27T15:35:45.033Z,15.37
2018-01-27T15:38:11.256Z,15.47
2018-01-27T15:40:37.458Z,16.23
2018-01-27T15:43:03.635Z,15.87
2018-01-27T15:45:29.839Z,14.77
2018-01-27T15:47:56.112Z,15.10
2018-01-27T15:50:22.319Z,15.00
2018-01-27T15:52:48.495Z,15.57
2018-01-27T15:55:14.679Z,14.20
2018-01-27T15:57:40.942Z,13.97
2018-01-27T16:00:07.199Z,16.03
2018-01-27T16:02:34.144Z,14.70
2018-01-27T16:05:01.064Z,13.30
2018-01-27T16:07:27.327Z,13.00
2018-01-27T16:09:54.247Z,16.63
2018-01-27T16:12:20.455Z,15.70
2018-01-27T16:14:46.719Z,14.00
2018-01-27T16:17:13.639Z,16.63
2018-01-27T16:19:39.851Z,15.87
2018-01-27T16:22:06.035Z,15.43
2018-01-27T16:24:32.983Z,15.87
2018-01-27T16:26:59.956Z,18.13
2018-01-27T16:29:26.167Z,16.53
2018-01-27T16:31:52.389Z,15.27
2018-01-27T16:34:18.599Z,15.97
2018-01-27T16:36:45.539Z,15.63
2018-01-27T16:39:18.692Z,15.50
2018-01-27T16:41:44.893Z,15.93
2018-01-27T16:44:11.174Z,16.90
2018-01-27T16:46:37.431Z,17.17
2018-01-27T16:49:04.697Z,18.87
2018-01-27T16:51:30.939Z,17.30
2018-01-27T16:53:57.192Z,17.97
2018-01-27T16:56:23.509Z,15.90
2018-01-27T16:58:49.730Z,15.97
2018-01-27T17:01:16.013Z,14.23
2018-01-27T17:03:42.991Z,15.27
2018-01-27T17:06:09.258Z,12.60
2018-01-27T17:08:35.483Z,15.80
2018-01-27T17:11:01.736Z,14.40
2018-01-27T17:13:27.956Z,13.57
2018-01-27T17:15:54.167Z,15.90
2018-01-27T17:18:20.339Z,16.00
2018-01-27T17:20:46.598Z,13.87
2018-01-27T17:23:13.520Z,15.60
2018-01-27T17:25:40.518Z,15.20
2018-01-27T17:28:06.842Z,14.00
2018-01-27T17:30:33.055Z,15.83
2018-01-27T17:32:59.235Z,17.10
2018-01-27T17:35:25.443Z,16.97
2018-01-27T17:37:51.640Z,17.00
2018-01-27T17:40:17.847Z,17.47
2018-01-27T17:42:44.771Z,18.67
2018-01-27T17:45:11.032Z,16.00
2018-01-27T17:47:37.199Z,19.40
2018-01-27T17:50:03.555Z,16.50
2018-01-27T17:52:29.786Z,19.23
2018-01-27T17:54:56.071Z,17.80
2018-01-27T17:57:22.268Z,17.77
2018-01-27T17:59:49.219Z,18.70
2018-01-27T18:02:16.218Z,20.67
2018-01-27T18:04:42.395Z,16.57
2018-01-27T18:07:10.194Z,16.07
2018-01-27T18:09:36.427Z,15.90
2018-01-27T18:12:02.639Z,16.83
2018-01-27T18:14:29.419Z,13.33
2018-01-27T18:16:55.635Z,17.17
2018-01-27T18:19:21.866Z,14.77
2018-01-27T18:21:48.139Z,16.07
2018-01-27T18:24:15.119Z,18.43
2018-01-27T18:26:41.299Z,12.23
2018-01-27T18:29:07.549Z,17.47
2018-01-27T18:31:34.527Z,14.27
2018-01-27T18:34:00.799Z,16.67
2018-01-27T18:36:27.026Z,14.97
2018-01-27T18:38:53.717Z,15.80
2018-01-27T18:41:19.952Z,16.63
2018-01-27T18:43:46.235Z,17.00
2018-01-27T18:46:12.427Z,14.70
2018-01-27T18:48:38.671Z,14.40
2018-01-27T18:51:04.850Z,13.60
2018-01-27T18:53:31.851Z,12.60
2018-01-27T18:55:58.031Z,12.57
2018-01-27T18:58:24.984Z,9.43
2018-01-27T19:00:51.194Z,13.30
2018-01-27T19:03:18.143Z,14.47
2018-01-27T19:05:45.119Z,14.97
2018-01-27T19:08:11.383Z,12.53
2018-01-27T19:10:37.654Z,15.83
2018-01-27T19:13:04.579Z,13.27
2018-01-27T19:15:30.787Z,12.47
2018-01-27T19:17:57.123Z,17.70
2018-01-27T19:20:24.103Z,14.87
2018-01-27T19:22:51.070Z,16.70
2018-01-27T19:25:17.330Z,12.60
2018-01-27T19:27:43.512Z,14.17
2018-01-27T19:30:10.464Z,12.10
2018-01-27T19:32:37.383Z,15.43
2018-01-27T19:35:03.664Z,12.30
2018-01-27T19:37:30.611Z,10.97
2018-01-27T19:39:56.819Z,12.70
2018-01-27T19:42:22.999Z,16.40
2018-01-27T19:44:49.259Z,10.13
2018-01-27T19:47:16.242Z,11.13
2018-01-27T19:49:42.483Z,13.13
2018-01-27T19:52:09.045Z,10.10
2018-01-27T19:54:35.350Z,11.47
2018-01-27T19:57:01.523Z,12.10
2018-01-27T19:59:27.786Z,11.50
2018-01-27T20:01:54.022Z,10.43
2018-01-27T20:04:20.363Z,13.73
2018-01-27T20:06:46.589Z,10.57
2018-01-27T20:09:12.850Z,11.73
2018-01-27T20:11:39.082Z,12.37
2018-01-27T20:14:05.435Z,10.63
2018-01-27T20:16:32.410Z,13.03
2018-01-27T20:18:58.665Z,16.43
2018-01-27T20:21:24.885Z,14.57
2018-01-27T20:23:51.094Z,11.50
2018-01-27T20:26:17.375Z,14.90
2018-01-27T20:28:43.666Z,14.63
2018-01-27T20:31:09.893Z,14.10
2018-01-27T20:33:36.118Z,16.90
2018-01-27T20:36:02.376Z,17.80
2018-01-27T20:38:28.555Z,17.03
2018-01-27T20:40:55.554Z,19.90
2018-01-27T20:43:21.802Z,19.20
2018-01-27T20:45:48.063Z,16.90
2018-01-27T20:48:15.036Z,21.17
2018-01-27T20:50:41.346Z,22.10
2018-01-27T20:53:08.333Z,22.17
2018-01-27T20:55:34.610Z,19.73
2018-01-27T20:58:01.536Z,17.57
2018-01-27T21:00:27.820Z,16.47
2018-01-27T21:02:53.999Z,17.93
2018-01-27T21:05:20.230Z,21.17
2018-01-27T21:07:46.437Z,16.87
2018-01-27T21:10:12.747Z,14.30
2018-01-27T21:12:39.108Z,12.83
2018-01-27T21:15:05.338Z,13.87
2018-01-27T21:17:38.454Z,19.00
2018-01-27T21:20:05.454Z,13.33
2018-01-27T21:22:31.654Z,15.97
2018-01-27T21:24:57.883Z,17.03
2018-01-27T21:27:24.142Z,17.00
2018-01-27T21:29:50.380Z,21.30
2018-01-27T21:32:16.587Z,22.93
2018-01-27T21:34:42.768Z,18.60
2018-01-27T21:37:08.979Z,20.07
2018-01-27T21:39:35.278Z,14.00
2018-01-27T21:42:01.542Z,19.10
2018-01-27T21:44:27.719Z,21.30
2018-01-27T21:46:54.006Z,17.67
2018-01-27T21:49:20.306Z,20.53
2018-01-27T21:51:46.524Z,18.83
2018-01-27T21:54:12.750Z,20.40
2018-01-27T21:56:39.019Z,17.97
2018-01-27T21:59:05.250Z,12.47
2018-01-27T22:01:31.454Z,14.17
2018-01-27T22:03:57.682Z,13.37
2018-01-27T22:06:24.020Z,8.87
2018-01-27T22:08:50.195Z,12.40
2018-01-27T22:11:17.108Z,12.43
2018-01-27T22:13:43.370Z,12.00
2018-01-27T22:16:10.295Z,10.63
2018-01-27T22:18:36.553Z,10.47
2018-01-27T22:21:03.523Z,10.77
2018-01-27T22:23:29.790Z,11.23
2018-01-27T22:25:56.022Z,12.80
2018-01-27T22:28:22.318Z,10.77
2018-01-27T22:30:48.550Z,7.17
2018-01-27T22:33:14.804Z,9.80
2018-01-27T22:35:41.036Z,13.03
2018-01-27T22:38:07.247Z,7.63
2018-01-27T22:40:33.474Z,12.80
2018-01-27T22:42:59.678Z,9.23
2018-01-27T22:45:25.909Z,8.23
2018-01-27T22:47:52.144Z,7.90
2018-01-27T22:50:18.402Z,9.60
2018-01-27T22:52:44.666Z,8.00
2018-01-27T22:55:11.592Z,7.80
2018-01-27T22:57:37.771Z,7.53
2018-01-27T23:00:04.031Z,9.00
2018-01-27T23:02:30.207Z,7.40
2018-01-27T23:04:57.202Z,10.67
2018-01-27T23:07:23.431Z,8.00
2018-01-27T23:09:49.677Z,8.80
2018-01-27T23:12:15.892Z,8.37
2018-01-27T23:14:42.155Z,5.70
2018-01-27T23:17:09.139Z,6.80
2018-01-27T23:19:35.398Z,9.00
2018-01-27T23:22:01.578Z,8.10
2018-01-27T23:24:28.577Z,9.80
2018-01-27T23:26:55.544Z,6.30
2018-01-27T23:29:21.806Z,5.80
2018-01-27T23:31:48.727Z,6.57
2018-01-27T23:34:15.132Z,7.97
2018-01-27T23:36:41.352Z,7.37
2018-01-27T23:39:07.527Z,5.80
2018-01-27T23:41:34.476Z,7.87
2018-01-27T23:44:01.419Z,7.00
2018-01-27T23:46:27.673Z,7.43
2018-01-27T23:48:53.879Z,8.83
2018-01-27T23:51:20.828Z,7.83
2018-01-27T23:53:47.809Z,5.97
2018-01-27T23:56:13.987Z,8.73
2018-01-27T23:58:40.187Z,7.07
